Time;durP1;ratioP1;P1;durP2;ratioP2;P2;SDS_P1;SDS_P2;PMS_P1;PMS_P2;Temp;Humidity;BMP_temperature;BMP_pressure;BME280_temperature;BME280_humidity;BME280_pressure;Samples;Min_cycle;Max_cycle;Signal;HPM_P1;HPM_P2
2021/11/07 00:00:35;;;;;;;19.25;12.60;;;;;;;2.87;71.84;101147.05;1779895;80;21474;-70
2021/11/07 00:03:09;;;;;;;24.67;14.38;;;;;;;2.86;71.85;101150.56;1757347;80;21004;-69
2021/11/07 00:05:41;;;;;;;25.37;17.27;;;;;;;2.85;71.91;101152.78;1780641;80;21838;-69
2021/11/07 00:08:26;;;;;;;18.57;13.20;;;;;;;2.85;71.93;101158.00;1767106;80;21048;-70
2021/11/07 00:10:49;;;;;;;23.18;13.13;;;;;;;2.85;71.87;101154.54;1751579;80;21429;-69
2021/11/07 00:13:19;;;;;;;20.88;13.25;;;;;;;2.81;71.83;101151.20;1753317;80;21386;-69
2021/11/07 00:15:45;;;;;;;18.37;13.00;;;;;;;2.80;71.83;101152.56;1756561;80;20997;-70
2021/11/07 00:18:16;;;;;;;18.55;12.47;;;;;;;2.78;71.87;101156.50;1765183;80;22181;-70
2021/11/07 00:20:51;;;;;;;18.60;12.73;;;;;;;2.78;71.95;101153.89;1765312;80;20944;-70
2021/11/07 00:26:07;;;;;;;23.57;15.45;;;;;;;2.77;72.00;101153.49;1774011;80;20949;-70
2021/11/07 00:31:18;;;;;;;20.43;13.58;;;;;;;2.73;71.98;101151.91;1756738;80;21828;-70
2021/11/07 00:33:38;;;;;;;21.23;13.20;;;;;;;2.72;71.96;101156.73;1778827;80;21471;-70
2021/11/07 00:36:08;;;;;;;20.40;12.28;;;;;;;2.73;71.92;101153.22;1754020;80;21072;-70
2021/11/07 00:38:33;;;;;;;20.72;13.00;;;;;;;2.74;71.92;101154.06;1770938;80;21048;-69
2021/11/07 00:41:04;;;;;;;19.35;11.83;;;;;;;2.58;72.28;101149.81;1767117;80;21012;-69
2021/11/07 00:43:33;;;;;;;18.95;12.23;;;;;;;2.71;72.02;101152.42;1753122;80;21780;-70
2021/11/07 00:46:08;;;;;;;17.62;12.65;;;;;;;2.73;71.93;101148.45;1774382;80;20957;-70
2021/11/07 00:48:31;;;;;;;17.50;12.63;;;;;;;2.71;71.90;101145.91;1752571;80;21171;-69
2021/11/07 00:51:11;;;;;;;19.05;12.82;;;;;;;2.71;71.88;101145.91;1767077;80;20965;-69
2021/11/07 00:58:57;;;;;;;14.85;10.85;;;;;;;2.70;71.82;101143.31;1771836;80;21487;-70
2021/11/07 01:01:15;;;;;;;18.40;10.78;;;;;;;2.68;71.87;101139.47;1765505;80;21044;-70
2021/11/07 01:03:42;;;;;;;19.32;11.05;;;;;;;2.67;71.89;101136.46;1751264;80;21047;-69
2021/11/07 01:06:09;;;;;;;15.30;10.30;;;;;;;2.66;71.96;101128.23;1768803;80;21394;-69
2021/11/07 01:08:35;;;;;;;15.58;10.35;;;;;;;2.68;71.98;101129.48;1757571;80;21822;-69
2021/11/07 01:11:02;;;;;;;15.80;11.20;;;;;;;2.70;72.01;101133.77;1752083;80;21005;-70
2021/11/07 01:13:30;;;;;;;16.48;10.82;;;;;;;2.71;72.04;101126.34;1756821;80;21558;-69
2021/11/07 01:15:57;;;;;;;18.92;10.88;;;;;;;2.73;72.03;101126.28;1760366;80;20993;-68
2021/11/07 01:18:23;;;;;;;17.52;11.28;;;;;;;2.73;72.02;101121.91;1767493;80;21033;-69
2021/11/07 01:20:50;;;;;;;19.15;12.98;;;;;;;2.74;72.01;101124.91;1754890;80;21969;-69
2021/11/07 01:23:27;;;;;;;18.67;13.53;;;;;;;2.76;71.98;101119.64;1781879;80;21590;-68
2021/11/07 01:25:49;;;;;;;17.80;12.00;;;;;;;2.74;71.95;101119.70;1771022;80;21604;-69
2021/11/07 01:28:15;;;;;;;21.02;12.98;;;;;;;2.74;71.90;101118.84;1755258;80;21087;-69
2021/11/07 01:30:50;;;;;;;22.52;14.35;;;;;;;2.70;71.90;101116.81;1772202;80;21069;-69
2021/11/07 01:33:16;;;;;;;20.97;12.80;;;;;;;2.69;71.89;101113.77;1782763;80;21919;-69
2021/11/07 01:36:00;;;;;;;18.15;12.45;;;;;;;2.69;71.94;101112.47;1765235;80;20950;-70
2021/11/07 01:38:23;;;;;;;19.23;12.90;;;;;;;2.70;71.92;101112.02;1755357;80;20977;-70
2021/11/07 01:40:58;;;;;;;18.55;11.93;;;;;;;2.69;71.89;101106.41;1766642;80;20992;-69
2021/11/07 01:43:14;;;;;;;17.30;12.00;;;;;;;2.67;71.90;101103.01;1753021;80;21009;-69
2021/11/07 01:45:52;;;;;;;16.75;11.53;;;;;;;2.65;71.92;101104.37;1758855;80;22434;-70
2021/11/07 01:48:18;;;;;;;17.07;11.25;;;;;;;2.64;71.95;101096.61;1756549;80;21020;-70
2021/11/07 01:50:51;;;;;;;20.05;12.23;;;;;;;2.65;71.96;101101.77;1771786;80;21107;-69
2021/11/07 01:53:23;;;;;;;17.82;12.47;;;;;;;2.65;71.97;101104.82;1763282;80;20958;-69
2021/11/07 01:55:50;;;;;;;14.03;10.18;;;;;;;2.65;71.94;101100.91;1766064;80;21123;-69
2021/11/07 01:58:16;;;;;;;15.83;9.80;;;;;;;2.65;71.99;101103.52;1783433;80;21775;-69
2021/11/07 02:00:43;;;;;;;15.30;10.18;;;;;;;2.63;72.03;101100.97;1780224;80;21047;-69
2021/11/07 02:03:11;;;;;;;16.25;10.40;;;;;;;2.65;72.12;101101.77;1785160;80;21478;-68
2021/11/07 02:05:37;;;;;;;13.60;9.88;;;;;;;2.68;72.23;101092.52;1778263;80;20965;-69
2021/11/07 02:08:06;;;;;;;15.85;9.90;;;;;;;2.72;72.29;101087.61;1758716;80;21488;-69
2021/11/07 02:10:36;;;;;;;15.68;10.08;;;;;;;2.76;72.33;101085.27;1746279;81;22517;-69
2021/11/07 02:13:03;;;;;;;12.75;9.25;;;;;;;2.80;72.34;101084.28;1751985;80;20989;-69
2021/11/07 02:15:30;;;;;;;13.78;10.10;;;;;;;2.82;72.37;101084.22;1757303;80;21739;-68
2021/11/07 02:17:57;;;;;;;15.53;10.93;;;;;;;2.68;72.71;101090.36;1754934;81;21647;-69
2021/11/07 02:20:31;;;;;;;15.35;10.63;;;;;;;2.80;72.53;101082.97;1757024;81;21013;-68
2021/11/07 02:22:59;;;;;;;13.70;9.63;;;;;;;2.82;72.39;101087.67;1739974;81;21807;-69
2021/11/07 02:25:26;;;;;;;16.02;10.40;;;;;;;2.82;72.40;101086.83;1758365;80;20947;-70
2021/11/07 02:27:53;;;;;;;14.70;10.30;;;;;;;2.81;72.37;101080.76;1773963;80;20870;-69
2021/11/07 02:30:20;;;;;;;16.07;10.00;;;;;;;2.80;72.38;101077.75;1767544;80;21016;-70
2021/11/07 02:32:49;;;;;;;14.70;9.53;;;;;;;2.79;72.34;101079.09;1755542;80;20948;-69
2021/11/07 02:35:16;;;;;;;15.85;9.50;;;;;;;2.76;72.34;101073.53;1750316;80;22419;-69
2021/11/07 02:37:43;;;;;;;14.78;9.65;;;;;;;2.70;72.33;101077.69;1768185;80;21001;-70
2021/11/07 02:40:11;;;;;;;16.05;9.53;;;;;;;2.64;72.31;101085.72;1778508;80;20937;-69
2021/11/07 02:42:42;;;;;;;11.83;8.53;;;;;;;2.56;72.29;101086.44;1769856;80;20959;-71
2021/11/07 02:45:12;;;;;;;15.13;9.30;;;;;;;2.46;72.32;101086.35;1760420;80;21568;-70
2021/11/07 02:47:39;;;;;;;13.40;9.53;;;;;;;2.38;72.41;101093.58;1765168;79;21856;-70
2021/11/07 02:50:07;;;;;;;13.58;9.23;;;;;;;2.33;72.53;101087.69;1756066;80;21581;-69
2021/11/07 02:52:36;;;;;;;13.75;10.28;;;;;;;2.30;72.57;101086.86;1755707;80;21045;-69
2021/11/07 02:55:03;;;;;;;12.90;9.08;;;;;;;2.30;72.66;101083.41;1758784;80;21012;-70
2021/11/07 02:57:30;;;;;;;15.65;9.83;;;;;;;2.27;72.64;101083.52;1766691;80;21016;-70
2021/11/07 02:59:58;;;;;;;15.63;9.20;;;;;;;2.22;72.76;101082.81;1762670;80;21824;-69
2021/11/07 03:02:28;;;;;;;12.63;9.05;;;;;;;2.22;72.86;101085.41;1754328;80;21419;-69
2021/11/07 03:04:55;;;;;;;16.05;10.10;;;;;;;2.20;72.94;101091.14;1744272;81;21004;-70
2021/11/07 03:07:22;;;;;;;18.95;12.73;;;;;;;2.14;73.00;101087.00;1752055;80;21059;-70
2021/11/07 03:09:49;;;;;;;17.12;11.20;;;;;;;2.05;73.06;101091.66;1766905;80;21324;-69
2021/11/07 03:12:16;;;;;;;16.82;10.68;;;;;;;1.98;73.12;101097.06;1734706;80;22243;-69
2021/11/07 03:14:47;;;;;;;14.40;9.60;;;;;;;1.95;73.23;101100.23;1771368;80;21124;-71
2021/11/07 03:17:17;;;;;;;12.18;8.90;;;;;;;1.93;73.29;101097.67;1753990;80;21008;-69
2021/11/07 03:19:43;;;;;;;16.15;10.55;;;;;;;1.92;73.36;101097.25;1758901;80;21004;-70
2021/11/07 03:22:14;;;;;;;15.15;10.05;;;;;;;1.91;73.46;101090.34;1758647;80;20993;-69
2021/11/07 03:24:41;;;;;;;14.78;10.32;;;;;;;1.92;73.50;101091.19;1765231;80;21817;-69
2021/11/07 03:27:19;;;;;;;14.38;9.63;;;;;;;1.93;73.50;101092.47;1768002;80;20980;-70
2021/11/07 03:29:49;;;;;;;17.90;11.68;;;;;;;1.93;73.49;101091.59;1758763;80;21004;-70
2021/11/07 03:32:28;;;;;;;17.35;11.63;;;;;;;1.91;73.57;101097.30;1748318;80;21416;-70
2021/11/07 03:34:54;;;;;;;18.92;11.25;;;;;;;1.90;73.69;101091.70;1774552;80;21036;-70
2021/11/07 03:37:23;;;;;;;14.80;10.88;;;;;;;1.91;73.76;101090.79;1784064;80;21872;-70
2021/11/07 03:39:53;;;;;;;17.05;10.75;;;;;;;1.91;73.75;101086.88;1784427;80;20948;-69
2021/11/07 03:42:21;;;;;;;15.15;10.45;;;;;;;1.92;73.74;101090.73;1768370;80;20993;-69
2021/11/07 03:44:47;;;;;;;14.13;10.30;;;;;;;1.92;73.75;101084.22;1762623;80;21090;-70
2021/11/07 03:47:13;;;;;;;15.40;10.60;;;;;;;1.90;73.71;101082.13;1781438;80;21564;-71
2021/11/07 03:49:41;;;;;;;15.03;9.85;;;;;;;1.88;73.72;101081.33;1784200;80;21840;-69
2021/11/07 03:52:09;;;;;;;15.90;11.50;;;;;;;1.85;73.75;101071.02;1774509;80;20984;-70
2021/11/07 03:54:39;;;;;;;16.05;10.95;;;;;;;1.87;73.79;101072.27;1776022;80;20978;-69
2021/11/07 03:57:06;;;;;;;18.05;12.10;;;;;;;1.88;73.82;101072.66;1767470;80;21561;-69
2021/11/07 03:59:32;;;;;;;16.62;11.40;;;;;;;1.88;73.82;101075.27;1751905;80;21105;-69
2021/11/07 04:01:59;;;;;;;16.30;11.65;;;;;;;1.86;73.77;101064.91;1771942;80;22247;-70
2021/11/07 04:04:26;;;;;;;16.55;12.03;;;;;;;1.86;73.79;101071.87;1774975;80;20994;-71
2021/11/07 04:06:52;;;;;;;18.27;11.12;;;;;;;1.85;73.80;101058.45;1782996;80;21048;-70
2021/11/07 04:09:19;;;;;;;16.45;11.45;;;;;;;1.86;73.83;101069.27;1783941;80;21380;-70
2021/11/07 04:11:45;;;;;;;15.45;11.12;;;;;;;1.84;73.81;101071.92;1760984;80;20976;-71
2021/11/07 04:14:12;;;;;;;17.98;11.55;;;;;;;1.83;73.82;101077.16;1771517;80;22124;-70
2021/11/07 04:16:39;;;;;;;15.30;11.00;;;;;;;1.81;73.81;101076.36;1774606;80;20985;-69
2021/11/07 04:19:06;;;;;;;16.35;10.63;;;;;;;1.78;73.83;101075.16;1755239;80;21428;-70
2021/11/07 04:21:32;;;;;;;16.90;11.57;;;;;;;1.77;73.93;101068.25;1736167;80;21008;-70
2021/11/07 04:23:59;;;;;;;18.02;11.68;;;;;;;1.76;74.09;101073.06;1771265;80;20945;-70
2021/11/07 04:26:26;;;;;;;16.17;11.12;;;;;;;1.76;74.18;101074.37;1755304;80;22214;-70
2021/11/07 04:28:53;;;;;;;20.00;12.63;;;;;;;1.76;74.26;101069.16;1755740;80;21009;-70
2021/11/07 04:31:20;;;;;;;15.83;11.20;;;;;;;1.78;74.36;101066.90;1762827;80;21041;-70
2021/11/07 04:33:46;;;;;;;16.02;11.10;;;;;;;1.81;74.40;101060.73;1755930;80;20965;-69
2021/11/07 04:36:13;;;;;;;15.45;11.12;;;;;;;1.83;74.35;101064.13;1766774;80;21422;-70
2021/11/07 04:38:41;;;;;;;15.13;10.45;;;;;;;1.83;74.27;101061.53;1782275;80;22438;-71
2021/11/07 04:41:16;;;;;;;17.17;11.30;;;;;;;1.80;74.21;101053.37;1781115;80;20985;-71
2021/11/07 04:43:36;;;;;;;17.30;10.70;;;;;;;1.78;74.23;101062.14;1778625;80;21013;-70
2021/11/07 04:46:02;;;;;;;18.45;12.07;;;;;;;1.77;74.26;101064.34;1756016;80;21044;-70
2021/11/07 04:48:29;;;;;;;20.00;12.00;;;;;;;1.76;74.24;101067.41;1753386;80;20964;-70
2021/11/07 04:50:55;;;;;;;18.62;10.95;;;;;;;1.75;74.17;101071.36;1769897;80;22177;-70
2021/11/07 04:53:22;;;;;;;17.60;11.33;;;;;;;1.71;74.07;101071.44;1763473;80;21049;-70
2021/11/07 04:55:49;;;;;;;15.95;11.05;;;;;;;1.63;73.95;101070.83;1772621;80;20936;-71
2021/11/07 04:58:16;;;;;;;18.15;11.33;;;;;;;1.59;73.95;101073.59;1775913;80;21451;-71
2021/11/07 05:00:43;;;;;;;14.65;9.93;;;;;;;1.51;74.05;101077.72;1764238;80;21043;-70
2021/11/07 05:03:10;;;;;;;15.45;11.18;;;;;;;1.49;74.14;101070.87;1766872;80;21850;-68
2021/11/07 05:05:37;;;;;;;16.62;11.08;;;;;;;1.46;74.21;101069.67;1766891;80;20933;-68
2021/11/07 05:08:04;;;;;;;16.57;11.25;;;;;;;1.45;74.28;101072.73;1755588;80;21406;-69
2021/11/07 05:10:31;;;;;;;18.98;11.08;;;;;;;1.44;74.37;101075.75;1776790;80;20960;-70
2021/11/07 05:12:57;;;;;;;15.95;11.55;;;;;;;1.44;74.47;101074.45;1782878;80;20945;-70
2021/11/07 05:15:24;;;;;;;15.80;11.35;;;;;;;1.47;74.61;101072.22;1778003;80;21485;-71
2021/11/07 05:17:51;;;;;;;20.43;11.43;;;;;;;1.50;74.71;101073.87;1760121;80;21437;-70
2021/11/07 05:20:17;;;;;;;16.23;11.85;;;;;;;1.52;74.73;101073.37;1775822;80;21404;-72
2021/11/07 05:22:44;;;;;;;17.12;12.33;;;;;;;1.52;74.82;101072.91;1770321;80;20985;-71
2021/11/07 05:25:12;;;;;;;18.80;11.68;;;;;;;1.55;74.90;101072.84;1779886;80;21336;-70
2021/11/07 05:27:38;;;;;;;14.80;11.97;;;;;;;1.60;74.99;101060.97;1766784;80;22214;-70
2021/11/07 05:30:08;;;;;;;18.17;12.23;;;;;;;1.64;75.07;101066.05;1766739;80;21017;-71
2021/11/07 05:32:36;;;;;;;15.48;11.63;;;;;;;1.68;75.14;101072.00;1784251;80;20945;-70
2021/11/07 05:35:03;;;;;;;23.42;12.00;;;;;;;1.72;75.19;101063.17;1783302;80;21001;-71
2021/11/07 05:37:29;;;;;;;17.70;12.78;;;;;;;1.78;75.25;101077.77;1760714;80;20957;-70
2021/11/07 05:39:56;;;;;;;15.45;11.43;;;;;;;1.82;75.30;101072.84;1778571;80;22752;-69
2021/11/07 05:42:22;;;;;;;16.93;12.00;;;;;;;1.87;75.37;101073.12;1783985;80;20977;-70
2021/11/07 05:44:48;;;;;;;17.20;11.97;;;;;;;1.91;75.43;101075.16;1773657;80;20973;-71
2021/11/07 05:47:15;;;;;;;18.30;12.63;;;;;;;1.96;75.49;101074.58;1768345;80;20996;-70
2021/11/07 05:49:41;;;;;;;17.45;11.78;;;;;;;2.02;75.57;101080.87;1773662;80;21084;-69
2021/11/07 05:52:08;;;;;;;17.37;12.10;;;;;;;2.06;75.62;101074.67;1769232;80;22180;-69
2021/11/07 05:54:34;;;;;;;19.45;12.50;;;;;;;2.12;75.70;101074.45;1773666;80;21538;-70
2021/11/07 05:57:02;;;;;;;17.92;12.43;;;;;;;2.17;75.72;101080.83;1771521;80;20937;-70
2021/11/07 05:59:29;;;;;;;20.00;13.65;;;;;;;2.20;75.76;101086.78;1763376;80;21090;-70
2021/11/07 06:01:57;;;;;;;19.45;12.65;;;;;;;2.25;75.81;101091.39;1743325;81;21431;-70
2021/11/07 06:04:23;;;;;;;20.00;14.30;;;;;;;2.29;75.89;101090.38;1752831;80;21798;-69
2021/11/07 06:06:50;;;;;;;20.40;14.40;;;;;;;2.35;75.93;101086.72;1770966;80;20928;-70
2021/11/07 06:09:17;;;;;;;19.77;13.62;;;;;;;2.41;75.94;101086.95;1752019;80;21025;-71
2021/11/07 06:11:43;;;;;;;21.65;15.03;;;;;;;2.47;75.95;101095.42;1769170;80;20973;-70
2021/11/07 06:14:10;;;;;;;18.02;13.98;;;;;;;2.51;75.96;101097.46;1781759;80;20953;-70
2021/11/07 06:16:37;;;;;;;20.90;15.53;;;;;;;2.56;75.94;101098.17;1755163;80;21763;-69
2021/11/07 06:19:05;;;;;;;20.48;14.65;;;;;;;2.59;75.91;101094.98;1758635;80;21004;-70
2021/11/07 06:21:33;;;;;;;19.37;14.87;;;;;;;2.63;75.87;101090.99;1758039;80;21091;-68
2021/11/07 06:23:59;;;;;;;21.02;15.08;;;;;;;2.65;75.87;101096.55;1783208;80;21430;-70
2021/11/07 06:26:26;;;;;;;18.35;13.70;;;;;;;2.69;75.93;101095.52;1778339;80;20921;-68
2021/11/07 06:28:53;;;;;;;18.35;14.73;;;;;;;2.75;76.00;101095.77;1770047;80;22191;-69
2021/11/07 06:31:23;;;;;;;22.32;14.87;;;;;;;2.81;76.01;101098.17;1766672;80;20945;-70
2021/11/07 06:33:50;;;;;;;21.68;15.20;;;;;;;2.86;76.05;101102.30;1753003;80;21103;-69
2021/11/07 06:36:17;;;;;;;21.20;16.10;;;;;;;2.96;76.17;101106.73;1775567;80;21138;-69
2021/11/07 06:38:44;;;;;;;21.07;15.90;;;;;;;3.03;76.22;101099.54;1766683;80;21003;-68
2021/11/07 06:41:11;;;;;;;22.62;15.80;;;;;;;3.15;76.33;101096.47;1765235;80;22204;-69
2021/11/07 06:43:38;;;;;;;22.22;15.68;;;;;;;3.23;76.41;101098.34;1779132;80;20929;-70
2021/11/07 06:46:05;;;;;;;22.35;15.65;;;;;;;3.32;76.35;101096.70;1760552;80;21435;-72
2021/11/07 06:48:31;;;;;;;21.30;14.98;;;;;;;3.40;76.31;101099.02;1762756;80;21042;-69
2021/11/07 06:50:58;;;;;;;21.02;15.60;;;;;;;3.50;76.38;101090.38;1774811;80;21465;-68
2021/11/07 06:53:24;;;;;;;24.07;15.65;;;;;;;3.61;76.37;101092.97;1758951;80;22793;-69
2021/11/07 06:55:53;;;;;;;22.13;15.10;;;;;;;3.73;76.41;101092.47;1770056;80;21028;-70
2021/11/07 06:58:19;;;;;;;20.15;14.75;;;;;;;3.87;76.41;101089.78;1771653;80;21404;-70
2021/11/07 07:00:46;;;;;;;19.20;14.95;;;;;;;3.98;76.37;101097.58;1769237;80;21395;-71
2021/11/07 07:03:13;;;;;;;22.65;17.00;;;;;;;4.09;76.16;101091.06;1758137;80;20996;-71
2021/11/07 07:05:40;;;;;;;19.40;14.98;;;;;;;4.18;76.09;101091.99;1756077;80;21832;-68
2021/11/07 07:08:28;;;;;;;21.10;16.15;;;;;;;4.30;76.08;101098.01;1752518;80;20930;-69
2021/11/07 07:10:49;;;;;;;22.40;15.88;;;;;;;4.38;75.78;101090.70;1765571;80;20993;-71
2021/11/07 07:13:14;;;;;;;22.22;16.10;;;;;;;4.47;75.67;101084.23;1757889;81;20995;-70
2021/11/07 07:15:40;;;;;;;20.45;15.50;;;;;;;4.56;75.58;101079.45;1750679;81;20926;-69
2021/11/07 07:21:11;;;;;;;20.70;14.87;;;;;;;4.75;75.21;101070.34;1759768;81;20977;-71
2021/11/07 07:23:54;;;;;;;16.82;13.48;;;;;;;4.88;75.14;101064.09;1767971;81;20941;-72
2021/11/07 07:31:25;;;;;;;20.43;13.95;;;;;;;5.19;74.66;101062.23;1760292;81;22209;-72
2021/11/07 07:33:48;;;;;;;18.05;13.68;;;;;;;5.32;74.64;101045.52;1762208;81;21401;-71
2021/11/07 07:36:12;;;;;;;20.48;14.73;;;;;;;5.43;74.18;101044.55;1745468;81;21087;-72
2021/11/07 07:38:39;;;;;;;19.55;14.35;;;;;;;5.54;74.12;101042.25;1753492;81;20965;-72
2021/11/07 07:41:05;;;;;;;19.35;14.47;;;;;;;5.65;73.99;101039.96;1782925;80;21442;-71
2021/11/07 07:43:33;;;;;;;21.50;14.28;;;;;;;5.73;73.61;101038.28;1771296;81;21916;-70
2021/11/07 07:46:07;;;;;;;18.45;14.68;;;;;;;5.82;73.44;101043.08;1757435;81;21022;-73
2021/11/07 07:48:39;;;;;;;20.25;14.53;;;;;;;5.90;73.18;101038.34;1750659;81;21030;-72
2021/11/07 07:51:00;;;;;;;24.92;16.95;;;;;;;6.02;73.27;101029.02;1750106;81;20953;-73
2021/11/07 07:53:26;;;;;;;21.00;14.95;;;;;;;6.14;73.14;101014.43;1741272;81;21037;-73
2021/11/07 07:55:53;;;;;;;21.65;17.10;;;;;;;6.28;73.01;101020.69;1753657;81;21996;-69
2021/11/07 07:58:20;;;;;;;23.18;17.30;;;;;;;6.43;72.68;101023.44;1725889;82;40035;-70
2021/11/07 08:00:47;;;;;;;20.02;13.90;;;;;;;6.55;72.51;101028.88;1734324;81;21392;-69
2021/11/07 08:03:14;;;;;;;17.37;13.25;;;;;;;6.64;71.93;101029.33;1777956;79;20986;-69
2021/11/07 08:05:40;;;;;;;18.30;13.35;;;;;;;6.73;71.69;101028.84;1775059;79;20948;-71
2021/11/07 08:08:08;;;;;;;20.55;15.45;;;;;;;6.78;71.33;101015.03;1761767;81;22660;-69
2021/11/07 08:10:35;;;;;;;18.87;13.25;;;;;;;6.89;71.37;101016.14;1773404;80;21442;-73
2021/11/07 08:13:01;;;;;;;19.62;14.58;;;;;;;7.03;71.02;101017.16;1732135;81;21321;-73
2021/11/07 08:15:28;;;;;;;16.57;12.82;;;;;;;7.12;70.33;101011.41;1748375;80;21350;-69
2021/11/07 08:17:55;;;;;;;19.25;13.35;;;;;;;7.20;70.15;101014.94;1779331;79;20976;-72
2021/11/07 08:20:21;;;;;;;17.87;13.13;;;;;;;7.27;69.78;101004.01;1771874;79;22186;-72
2021/11/07 08:22:49;;;;;;;17.20;12.80;;;;;;;7.37;69.35;101005.66;1764860;79;20976;-71
2021/11/07 08:25:20;;;;;;;18.35;12.63;;;;;;;7.45;69.06;101007.39;1753223;79;21044;-71
2021/11/07 08:27:45;;;;;;;17.60;12.20;;;;;;;7.55;68.97;101010.35;1750877;80;21083;-71
2021/11/07 08:30:13;;;;;;;19.62;13.38;;;;;;;7.64;68.52;101003.25;1771763;79;21525;-72
2021/11/07 08:32:40;;;;;;;14.93;11.95;;;;;;;7.71;68.21;101002.80;1741659;80;22243;-71
2021/11/07 08:35:07;;;;;;;14.75;11.60;;;;;;;7.80;67.74;101002.73;1777255;80;21060;-70
2021/11/07 08:37:44;;;;;;;16.87;12.18;;;;;;;7.89;67.81;101010.09;1761632;80;20974;-70
2021/11/07 08:40:09;;;;;;;17.30;12.55;;;;;;;7.97;67.27;101005.23;1756439;80;21482;-70
2021/11/07 09:04:37;;;;;;;16.60;11.48;;;;;;;8.96;65.00;100960.17;1739443;81;21125;-71
2021/11/07 09:09:25;;;;;;;14.15;10.90;;;;;;;9.07;64.05;100957.73;1751378;81;21480;-70
2021/11/07 09:11:55;;;;;;;16.93;12.15;;;;;;;9.05;63.98;100941.63;1732965;82;20989;-70
2021/11/07 09:14:25;;;;;;;13.88;10.25;;;;;;;9.11;63.86;100944.72;1728974;82;21009;-72
2021/11/07 09:16:53;;;;;;;16.67;12.20;;;;;;;9.21;63.78;100941.49;1723738;82;21027;-71
2021/11/07 09:19:25;;;;;;;15.50;10.63;;;;;;;9.36;63.98;100943.12;1741150;82;21044;-70
2021/11/07 09:21:52;;;;;;;14.28;10.15;;;;;;;9.51;63.86;100943.45;1708414;82;21043;-74
2021/11/07 09:24:38;;;;;;;12.23;9.05;;;;;;;9.60;63.00;100941.52;1713588;82;21908;-72
2021/11/07 09:27:08;;;;;;;15.08;11.48;;;;;;;9.64;63.10;100928.96;1729587;82;21095;-72
2021/11/07 09:29:43;;;;;;;13.30;10.45;;;;;;;9.75;62.66;100915.93;1731431;82;21055;-73
2021/11/07 09:32:12;;;;;;;12.98;9.55;;;;;;;9.85;62.77;100914.36;1731790;82;21103;-72
2021/11/07 09:34:44;;;;;;;11.90;8.88;;;;;;;9.98;62.32;100907.28;1720595;82;21040;-73
2021/11/07 09:37:09;;;;;;;13.10;9.80;;;;;;;10.09;61.84;100903.91;1728408;82;21795;-72
2021/11/07 09:39:47;;;;;;;15.28;11.18;;;;;;;10.13;60.98;100892.17;1735633;82;21522;-71
2021/11/07 09:44:52;;;;;;;15.58;10.80;;;;;;;10.13;60.47;100888.21;1724938;82;21044;-71
2021/11/07 09:47:18;;;;;;;13.65;10.38;;;;;;;10.22;60.26;100879.69;1718845;82;21056;-71
2021/11/07 09:49:48;;;;;;;15.10;11.93;;;;;;;10.29;60.06;100872.19;1733544;81;22429;-71
2021/11/07 09:52:27;;;;;;;31.02;21.80;;;;;;;10.36;59.88;100876.09;1732252;81;21008;-72
2021/11/07 09:55:00;;;;;;;28.75;19.37;;;;;;;10.40;59.82;100875.39;1723819;81;21054;-72
2021/11/07 09:57:26;;;;;;;16.05;11.60;;;;;;;10.53;59.68;100877.55;1736151;81;21118;-73
2021/11/07 09:59:56;;;;;;;19.37;13.38;;;;;;;10.64;58.77;100878.10;1731037;81;21122;-74
2021/11/07 10:02:23;;;;;;;13.88;9.80;;;;;;;10.77;58.55;100874.94;1744865;81;21842;-72
2021/11/07 10:04:50;;;;;;;14.65;11.08;;;;;;;10.94;57.85;100881.65;1732162;82;21055;-72
2021/11/07 10:07:25;;;;;;;14.55;9.58;;;;;;;11.08;57.89;100879.66;1737790;81;21525;-73
2021/11/07 10:09:55;;;;;;;12.68;9.00;;;;;;;11.27;57.20;100875.66;1730923;81;21091;-72
2021/11/07 10:15:13;;;;;;;16.62;12.18;;;;;;;11.56;56.68;100866.39;1794018;80;22509;-74
2021/11/07 10:17:50;;;;;;;15.10;10.93;;;;;;;11.63;55.69;100858.84;1783922;79;20995;-73
2021/11/07 10:20:23;;;;;;;10.55;6.87;;;;;;;11.68;55.59;100854.05;1773614;80;21414;-74
2021/11/07 10:23:17;;;;;;;11.38;7.62;;;;;;;11.70;54.90;100836.25;1783126;80;20957;-73
2021/11/07 10:25:58;;;;;;;10.13;6.40;;;;;;;11.73;54.08;100834.69;1785449;80;21401;-73
2021/11/07 10:28:28;;;;;;;12.78;6.15;;;;;;;11.79;54.01;100838.19;1781299;80;21792;-73
2021/11/07 10:31:12;;;;;;;7.35;5.40;;;;;;;11.91;54.09;100834.63;1794523;80;21455;-73
2021/11/07 10:39:23;;;;;;;9.93;6.45;;;;;;;12.28;53.16;100790.20;1795475;80;20949;-73
2021/11/07 10:41:56;;;;;;;6.95;4.67;;;;;;;12.35;52.36;100795.00;1793425;80;21844;-74
2021/11/07 10:47:12;;;;;;;6.47;4.30;;;;;;;12.38;51.57;100794.28;1793056;80;20965;-73
2021/11/07 10:52:26;;;;;;;8.68;5.78;;;;;;;12.53;50.38;100774.97;1747919;81;20985;-73
2021/11/07 10:54:54;;;;;;;5.78;4.70;;;;;;;12.49;50.87;100767.77;1769056;81;21737;-73
2021/11/07 10:57:25;;;;;;;6.35;4.60;;;;;;;12.57;50.50;100763.17;1763319;81;20941;-72
2021/11/07 11:00:34;;;;;;;7.17;4.47;;;;;;;12.63;49.93;100765.30;1774042;81;21056;-72
2021/11/07 11:03:03;;;;;;;5.72;4.45;;;;;;;12.63;49.93;100757.84;1751376;81;20977;-72
2021/11/07 11:05:49;;;;;;;6.80;4.90;;;;;;;12.63;49.97;100758.68;1779999;80;20941;-73
2021/11/07 11:08:18;;;;;;;7.37;5.55;;;;;;;12.52;49.66;100759.56;1746017;81;21800;-73
2021/11/07 11:16:23;;;;;;;8.78;6.72;;;;;;;11.98;50.42;100742.34;1752797;80;21085;-72
2021/11/07 11:21:32;;;;;;;5.58;4.17;;;;;;;11.53;52.10;100742.78;1772282;80;21887;-71
2021/11/07 11:24:15;;;;;;;8.53;4.90;;;;;;;11.41;52.11;100744.09;1787807;80;21058;-73
2021/11/07 11:26:46;;;;;;;7.45;4.65;;;;;;;11.33;52.61;100747.80;1781835;80;21403;-72
2021/11/07 11:32:02;;;;;;;5.40;4.37;;;;;;;11.26;53.71;100723.27;1750486;82;21056;-72
2021/11/07 11:34:32;;;;;;;7.72;5.05;;;;;;;11.29;53.70;100714.63;1781178;80;22500;-71
2021/11/07 11:37:17;;;;;;;7.95;5.85;;;;;;;11.27;53.61;100710.40;1790722;80;21483;-71
2021/11/07 11:39:34;;;;;;;7.72;6.22;;;;;;;11.19;53.67;100712.30;1773721;80;20993;-71
2021/11/07 11:42:04;;;;;;;6.80;4.92;;;;;;;11.15;54.16;100717.47;1767355;80;21043;-71
2021/11/07 11:44:24;;;;;;;6.80;4.70;;;;;;;11.14;54.22;100721.92;1757324;80;21015;-71
2021/11/07 11:47:28;;;;;;;6.00;4.80;;;;;;;11.11;54.33;100723.97;1768869;79;21759;-70
2021/11/07 11:52:43;;;;;;;10.68;8.25;;;;;;;10.96;54.26;100731.23;1760851;81;21067;-70
2021/11/07 11:56:10;;;;;;;9.90;6.15;;;;;;;10.89;54.58;100720.76;1760053;80;21522;-71
2021/11/07 11:58:13;;;;;;;12.37;8.48;;;;;;;10.84;54.67;100721.13;1745159;80;21015;-71
2021/11/07 12:09:29;;;;;;;7.35;5.33;;;;;;;10.73;55.38;100702.59;1768876;79;21115;-71
2021/11/07 12:12:00;;;;;;;6.67;4.90;;;;;;;10.64;55.44;100694.51;1757664;81;21069;-71
2021/11/07 12:14:35;;;;;;;9.10;7.10;;;;;;;10.58;55.84;100705.04;1783411;79;21818;-71
2021/11/07 12:17:07;;;;;;;6.40;4.80;;;;;;;10.56;56.04;100704.31;1794133;79;21012;-70
2021/11/07 12:19:44;;;;;;;5.83;4.40;;;;;;;10.53;55.85;100702.75;1810459;78;20980;-71
2021/11/07 12:22:17;;;;;;;5.67;4.75;;;;;;;10.48;55.39;100710.64;1779943;80;21008;-71
2021/11/07 12:24:53;;;;;;;6.50;5.28;;;;;;;10.39;55.39;100708.67;1777475;80;21529;-72
2021/11/07 12:27:43;;;;;;;9.05;5.50;;;;;;;10.35;55.66;100696.66;1781046;79;22232;-71
2021/11/07 12:30:24;;;;;;;7.55;6.80;;;;;;;10.37;55.67;100690.78;1753498;81;20968;-70
2021/11/07 12:33:07;;;;;;;8.28;5.97;;;;;;;10.39;56.03;100677.83;1750809;80;21425;-70
2021/11/07 12:36:05;;;;;;;7.17;5.20;;;;;;;10.45;56.17;100677.38;1754976;80;21234;-72
2021/11/07 12:41:17;;;;;;;6.87;4.55;;;;;;;10.50;55.18;100680.98;1768949;80;22800;-71
2021/11/07 12:43:59;;;;;;;6.35;5.00;;;;;;;10.41;54.83;100688.27;1760438;80;21454;-70
2021/11/07 12:46:37;;;;;;;8.63;5.17;;;;;;;10.34;54.90;100688.37;1756580;80;21004;-71
2021/11/07 12:49:05;;;;;;;9.20;5.60;;;;;;;10.27;55.33;100680.89;1743671;80;21524;-71
2021/11/07 12:51:36;;;;;;;7.65;5.17;;;;;;;10.24;55.70;100675.01;1764653;80;21049;-72
2021/11/07 12:54:13;;;;;;;7.45;5.35;;;;;;;10.19;55.98;100666.53;1755344;80;22471;-71